createdAt,value
2024-03-02T00:00:41.768Z,99306.63
2024-03-02T00:03:11.350Z,99304.97
2024-03-02T00:05:40.172Z,99302.16
2024-03-02T00:08:09.603Z,99298.72
2024-03-02T00:10:41.014Z,99297.69
2024-03-02T00:13:09.074Z,99287.63
2024-03-02T00:15:44.378Z,99290.88
2024-03-02T00:18:14.710Z,99299.16
2024-03-02T00:20:43.721Z,99293.16
2024-03-02T00:23:13.936Z,99290.38
2024-03-02T00:25:43.796Z,99286.34
2024-03-02T00:28:21.234Z,99288.03
2024-03-02T00:31:00.250Z,99285.22
2024-03-02T00:33:33.974Z,99291.84
2024-03-02T00:36:04.210Z,99288.28
2024-03-02T00:38:32.307Z,99291.69
2024-03-02T00:41:00.964Z,99291.59
2024-03-02T00:43:47.613Z,99295.63
2024-03-02T00:46:18.599Z,99296.88
2024-03-02T00:48:55.404Z,99294.94
2024-03-02T00:51:26.170Z,99303.84
2024-03-02T00:53:56.309Z,99295.78
2024-03-02T00:56:24.271Z,99300.13
2024-03-02T00:58:52.348Z,99303.75
2024-03-02T01:01:20.769Z,99303.00
2024-03-02T01:03:48.553Z,99298.59
2024-03-02T01:06:16.367Z,99297.31
2024-03-02T01:08:45.373Z,99295.88
2024-03-02T01:11:13.098Z,99289.91
2024-03-02T01:13:40.672Z,99286.09
2024-03-02T01:16:08.291Z,99279.69
2024-03-02T01:18:35.814Z,99280.41
2024-03-02T01:21:03.304Z,99285.25
2024-03-02T01:23:30.802Z,99275.44
2024-03-02T01:25:59.542Z,99277.81
2024-03-02T01:28:26.959Z,99282.19
2024-03-02T01:30:54.434Z,99285.38
2024-03-02T01:33:22.417Z,99281.94
2024-03-02T01:35:49.985Z,99285.94
2024-03-02T01:38:17.417Z,99285.28
2024-03-02T01:40:45.849Z,99284.09
2024-03-02T01:43:14.710Z,99290.16
2024-03-02T01:45:42.278Z,99290.44
2024-03-02T01:48:10.060Z,99286.97
2024-03-02T01:50:38.090Z,99290.19
2024-03-02T01:53:05.760Z,99282.22
2024-03-02T01:55:34.206Z,99290.69
2024-03-02T01:58:02.204Z,99283.44
2024-03-02T02:00:31.335Z,99277.50
2024-03-02T02:02:59.203Z,99269.03
2024-03-02T02:05:26.783Z,99275.81
2024-03-02T02:07:54.227Z,99269.47
2024-03-02T02:10:21.672Z,99267.63
2024-03-02T02:12:49.141Z,99264.47
2024-03-02T02:15:29.785Z,99270.94
2024-03-02T02:18:00.452Z,99259.38
2024-03-02T02:20:28.517Z,99264.34
2024-03-02T02:22:58.621Z,99270.84
2024-03-02T02:25:26.187Z,99270.06
2024-03-02T02:27:54.319Z,99272.94
2024-03-02T02:30:23.053Z,99273.13
2024-03-02T02:32:50.839Z,99268.03
2024-03-02T02:35:18.392Z,99272.06
2024-03-02T02:37:47.371Z,99270.16
2024-03-02T02:40:16.850Z,99272.19
2024-03-02T02:42:44.432Z,99271.00
2024-03-02T02:45:14.209Z,99266.56
2024-03-02T02:47:41.816Z,99263.75
2024-03-02T02:50:10.163Z,99266.91
2024-03-02T02:52:40.453Z,99264.97
2024-03-02T02:55:10.057Z,99265.78
2024-03-02T02:57:40.758Z,99265.50
2024-03-02T03:00:15.028Z,99267.88
2024-03-02T03:02:43.664Z,99266.34
2024-03-02T03:05:12.294Z,99256.94
2024-03-02T03:07:41.072Z,99258.97
2024-03-02T03:10:09.808Z,99262.25
2024-03-02T03:12:39.161Z,99257.47
2024-03-02T03:15:08.149Z,99259.66
2024-03-02T03:17:36.089Z,99263.66
2024-03-02T03:20:05.315Z,99256.69
2024-03-02T03:22:33.256Z,99259.78
2024-03-02T03:25:01.110Z,99256.19
2024-03-02T03:27:28.788Z,99268.13
2024-03-02T03:29:57.717Z,99260.75
2024-03-02T03:32:25.892Z,99259.28
2024-03-02T03:34:53.377Z,99270.16
2024-03-02T03:37:20.814Z,99267.88
2024-03-02T03:39:48.243Z,99263.94
2024-03-02T03:42:15.731Z,99256.25
2024-03-02T03:44:43.338Z,99264.78
2024-03-02T03:47:12.089Z,99257.28
2024-03-02T03:49:39.494Z,99257.16
2024-03-02T03:52:07.012Z,99255.25
2024-03-02T03:54:34.469Z,99254.31
2024-03-02T03:57:02.029Z,99249.25
2024-03-02T03:59:29.435Z,99235.63
2024-03-02T04:01:56.882Z,99242.75
2024-03-02T04:04:25.675Z,99264.72
2024-03-02T04:06:53.074Z,99255.69
2024-03-02T04:09:20.537Z,99256.31
2024-03-02T04:11:48.077Z,99267.09
2024-03-02T04:14:15.524Z,99267.38
2024-03-02T04:16:42.913Z,99277.59
2024-03-02T04:19:10.352Z,99272.84
2024-03-02T04:21:39.194Z,99277.06
2024-03-02T04:24:07.208Z,99275.22
2024-03-02T04:26:34.596Z,99274.81
2024-03-02T04:29:02.897Z,99270.34
2024-03-02T04:31:30.733Z,99259.78
2024-03-02T04:33:58.246Z,99272.50
2024-03-02T04:36:25.748Z,99281.81
2024-03-02T04:38:54.533Z,99271.66
2024-03-02T04:41:21.956Z,99283.81
2024-03-02T04:43:49.409Z,99280.69
2024-03-02T04:46:16.823Z,99289.22
2024-03-02T04:48:44.282Z,99295.50
2024-03-02T04:51:12.234Z,99290.75
2024-03-02T04:53:39.659Z,99296.78
2024-03-02T04:56:26.187Z,99301.84
2024-03-02T04:58:53.628Z,99302.72
2024-03-02T05:01:21.144Z,99299.91
2024-03-02T05:03:48.627Z,99302.00
2024-03-02T05:06:16.141Z,99298.66
2024-03-02T05:08:45.819Z,99308.00
2024-03-02T05:11:40.123Z,99319.97
2024-03-02T05:14:08.292Z,99318.47
2024-03-02T05:16:36.046Z,99323.09
2024-03-02T05:19:03.589Z,99331.09
2024-03-02T05:21:31.094Z,99330.41
2024-03-02T05:23:58.555Z,99333.25
2024-03-02T05:26:27.949Z,99333.63
2024-03-02T05:28:55.357Z,99336.81
2024-03-02T05:31:22.794Z,99336.34
2024-03-02T05:33:52.941Z,99332.88
2024-03-02T05:36:22.719Z,99331.22
2024-03-02T05:38:50.104Z,99338.75
2024-03-02T05:41:17.597Z,99337.72
2024-03-02T05:43:46.373Z,99350.09
2024-03-02T05:46:14.020Z,99345.78
2024-03-02T05:48:41.436Z,99341.97
2024-03-02T05:51:08.891Z,99352.47
2024-03-02T05:53:39.077Z,99353.97
2024-03-02T05:56:07.204Z,99367.31
2024-03-02T05:58:47.361Z,99362.13
2024-03-02T06:01:16.139Z,99359.41
2024-03-02T06:03:43.800Z,99373.06
2024-03-02T06:06:11.557Z,99375.56
2024-03-02T06:08:38.968Z,99382.72
2024-03-02T06:11:06.448Z,99378.31
2024-03-02T06:13:33.886Z,99387.44
2024-03-02T06:16:01.400Z,99389.34
2024-03-02T06:18:30.164Z,99394.66
2024-03-02T06:20:57.601Z,99390.44
2024-03-02T06:23:25.028Z,99393.81
2024-03-02T06:25:52.418Z,99395.16
2024-03-02T06:28:19.852Z,99400.41
2024-03-02T06:30:47.302Z,99398.81
2024-03-02T06:33:14.823Z,99391.84
2024-03-02T06:35:43.632Z,99391.31
2024-03-02T06:38:11.055Z,99391.41
2024-03-02T06:40:39.488Z,99400.91
2024-03-02T06:43:07.001Z,99406.97
2024-03-02T06:45:35.704Z,99402.31
2024-03-02T06:48:03.168Z,99407.53
2024-03-02T06:50:30.957Z,99414.81
2024-03-02T06:52:59.704Z,99417.75
2024-03-02T06:55:27.153Z,99419.00
2024-03-02T06:57:54.915Z,99432.06
2024-03-02T07:00:22.631Z,99424.25
2024-03-02T07:02:50.707Z,99423.16
2024-03-02T07:05:18.172Z,99431.41
2024-03-02T07:07:45.607Z,99437.63
2024-03-02T07:10:14.366Z,99434.25
2024-03-02T07:12:41.798Z,99442.03
2024-03-02T07:15:19.780Z,99440.47
2024-03-02T07:17:47.295Z,99434.75
2024-03-02T07:20:14.799Z,99439.22
2024-03-02T07:22:44.832Z,99441.28
2024-03-02T07:27:45.115Z,99447.78
2024-03-02T07:30:17.232Z,99435.34
2024-03-02T07:32:46.717Z,99442.63
2024-03-02T07:35:15.130Z,99450.09
2024-03-02T07:37:43.785Z,99455.53
2024-03-02T07:40:13.157Z,99451.03
2024-03-02T07:42:42.496Z,99453.84
2024-03-02T07:45:10.627Z,99457.88
2024-03-02T07:47:38.443Z,99467.19
2024-03-02T07:50:08.135Z,99459.31
2024-03-02T07:52:35.605Z,99459.41
2024-03-02T07:55:03.005Z,99475.44
2024-03-02T07:57:30.541Z,99490.75
2024-03-02T08:00:00.624Z,99485.66
2024-03-02T08:02:28.288Z,99493.00
2024-03-02T08:04:55.817Z,99481.25
2024-03-02T08:07:23.318Z,99481.66
2024-03-02T08:09:50.806Z,99478.63
2024-03-02T08:12:19.496Z,99478.75
2024-03-02T08:14:46.996Z,99493.81
2024-03-02T08:17:15.778Z,99482.59
2024-03-02T08:19:43.304Z,99493.78
2024-03-02T08:22:10.843Z,99496.50
2024-03-02T08:24:38.468Z,99494.25
2024-03-02T08:27:06.367Z,99490.41
2024-03-02T08:29:33.843Z,99498.13
2024-03-02T08:32:01.358Z,99500.69
2024-03-02T08:34:30.092Z,99497.16
2024-03-02T08:36:57.577Z,99516.03
2024-03-02T08:39:25.173Z,99503.44
2024-03-02T08:41:52.719Z,99511.22
2024-03-02T08:44:20.350Z,99516.09
2024-03-02T08:46:48.294Z,99518.56
2024-03-02T08:49:16.008Z,99514.69
2024-03-02T08:51:45.009Z,99518.09
2024-03-02T08:54:12.510Z,99508.00
2024-03-02T08:56:39.941Z,99498.28
2024-03-02T08:59:07.406Z,99500.78
2024-03-02T09:01:35.085Z,99492.13
2024-03-02T09:04:02.655Z,99494.56
2024-03-02T09:06:30.088Z,99500.78
2024-03-02T09:08:58.825Z,99506.22
2024-03-02T09:11:26.293Z,99503.63
2024-03-02T09:13:54.110Z,99497.16
2024-03-02T09:16:21.662Z,99502.91
2024-03-02T09:18:49.252Z,99508.06
2024-03-02T09:21:16.877Z,99510.81
2024-03-02T09:23:46.760Z,99501.97
2024-03-02T09:26:15.555Z,99516.69
2024-03-02T09:28:44.797Z,99512.38
2024-03-02T09:31:13.022Z,99527.47
2024-03-02T09:33:41.163Z,99513.03
2024-03-02T09:36:19.236Z,99524.03
2024-03-02T09:38:46.722Z,99527.69
2024-03-02T09:41:16.342Z,99534.28
2024-03-02T09:43:44.107Z,99530.47
2024-03-02T09:46:12.061Z,99534.06
2024-03-02T09:48:40.002Z,99533.91
2024-03-02T09:51:07.567Z,99538.63
2024-03-02T09:53:36.071Z,99535.00
2024-03-02T09:56:03.608Z,99534.25
2024-03-02T09:58:32.898Z,99532.47
2024-03-02T10:01:00.418Z,99533.50
2024-03-02T10:03:30.951Z,99530.31
2024-03-02T10:05:58.382Z,99533.56
2024-03-02T10:08:25.955Z,99524.03
2024-03-02T10:10:53.400Z,99528.22
2024-03-02T10:13:20.869Z,99516.91
2024-03-02T10:15:49.708Z,99516.66
2024-03-02T10:18:29.221Z,99509.78
2024-03-02T10:20:56.729Z,99511.97
2024-03-02T10:23:26.359Z,99512.84
2024-03-02T10:25:58.287Z,99515.91
2024-03-02T10:28:29.048Z,99510.06
2024-03-02T10:30:57.986Z,99497.06
2024-03-02T10:33:26.339Z,99506.91
2024-03-02T10:35:54.099Z,99496.06
2024-03-02T10:38:22.200Z,99489.63
2024-03-02T10:40:50.060Z,99488.81
2024-03-02T10:43:17.944Z,99487.22
2024-03-02T10:45:48.031Z,99482.38
2024-03-02T10:48:16.874Z,99480.28
2024-03-02T10:50:44.323Z,99477.53
2024-03-02T10:53:11.766Z,99468.22
2024-03-02T10:55:40.209Z,99461.13
2024-03-02T10:58:09.023Z,99459.63
2024-03-02T11:00:38.390Z,99461.16
2024-03-02T11:03:07.816Z,99461.19
2024-03-02T11:05:40.374Z,99459.63
2024-03-02T11:08:09.349Z,99467.03
2024-03-02T11:10:38.927Z,99458.22
2024-03-02T11:13:11.301Z,99461.44
2024-03-02T11:15:40.058Z,99458.81
2024-03-02T11:18:10.080Z,99455.22
2024-03-02T11:20:41.087Z,99454.91
2024-03-02T11:23:09.900Z,99459.22
2024-03-02T11:25:38.450Z,99454.53
2024-03-02T11:28:07.734Z,99465.44
2024-03-02T11:30:54.408Z,99463.63
2024-03-02T11:33:28.487Z,99462.53
2024-03-02T11:35:59.195Z,99463.47
2024-03-02T11:38:34.390Z,99454.50
2024-03-02T11:41:03.910Z,99455.31
2024-03-02T11:43:32.000Z,99454.06
2024-03-02T11:46:00.373Z,99451.66
2024-03-02T11:48:28.526Z,99445.53
2024-03-02T11:51:00.481Z,99451.94
2024-03-02T11:53:32.237Z,99446.78
2024-03-02T11:56:02.650Z,99445.81
2024-03-02T11:58:30.465Z,99449.34
2024-03-02T12:00:58.933Z,99441.41
2024-03-02T12:03:28.063Z,99446.19
2024-03-02T12:05:57.306Z,99450.69
2024-03-02T12:08:25.106Z,99449.53
2024-03-02T12:10:58.983Z,99446.56
2024-03-02T12:13:26.517Z,99444.31
2024-03-02T12:15:56.908Z,99441.66
2024-03-02T12:18:24.451Z,99440.44
2024-03-02T12:20:53.696Z,99442.13
2024-03-02T12:23:23.163Z,99452.97
2024-03-02T12:25:51.074Z,99451.81
2024-03-02T12:28:18.726Z,99442.16
2024-03-02T12:30:46.657Z,99442.94
2024-03-02T12:33:14.512Z,99440.53
2024-03-02T12:35:42.566Z,99442.56
2024-03-02T12:38:10.067Z,99442.16
2024-03-02T12:40:39.057Z,99441.72
2024-03-02T12:43:07.552Z,99434.84
2024-03-02T12:45:36.030Z,99433.72
2024-03-02T12:48:04.365Z,99425.69
2024-03-02T12:50:32.796Z,99422.03
2024-03-02T12:53:00.253Z,99430.50
2024-03-02T12:55:28.845Z,99430.47
2024-03-02T12:57:58.313Z,99436.91
2024-03-02T13:00:28.072Z,99430.19
2024-03-02T13:03:03.006Z,99431.34
2024-03-02T13:05:32.321Z,99425.00
2024-03-02T13:08:00.598Z,99425.28
2024-03-02T13:10:28.055Z,99423.53
2024-03-02T13:12:58.176Z,99430.25
2024-03-02T13:15:25.781Z,99419.78
2024-03-02T13:17:53.246Z,99424.31
2024-03-02T13:20:22.876Z,99420.75
2024-03-02T13:22:51.446Z,99415.50
2024-03-02T13:25:18.874Z,99429.63
2024-03-02T13:27:46.428Z,99424.81
2024-03-02T13:30:15.430Z,99418.00
2024-03-02T13:32:42.883Z,99423.25
2024-03-02T13:35:12.389Z,99418.81
2024-03-02T13:37:40.587Z,99430.88
2024-03-02T13:40:14.209Z,99430.09
2024-03-02T13:42:42.059Z,99433.69
2024-03-02T13:45:10.140Z,99434.06
2024-03-02T13:47:38.926Z,99428.47
2024-03-02T13:50:08.335Z,99432.88
2024-03-02T13:52:35.842Z,99439.31
2024-03-02T13:55:03.587Z,99431.69
2024-03-02T13:57:31.947Z,99430.88
2024-03-02T13:59:59.448Z,99431.69
2024-03-02T14:02:27.044Z,99429.69
2024-03-02T14:04:56.314Z,99434.91
2024-03-02T14:07:23.727Z,99430.06
2024-03-02T14:09:51.312Z,99431.16
2024-03-02T14:12:19.018Z,99435.72
2024-03-02T14:14:46.511Z,99428.47
2024-03-02T14:17:16.618Z,99435.25
2024-03-02T14:19:44.113Z,99431.69
2024-03-02T14:22:14.851Z,99430.06
2024-03-02T14:24:44.403Z,99436.09
2024-03-02T14:27:20.480Z,99436.06
2024-03-02T14:29:56.199Z,99436.09
2024-03-02T14:32:23.649Z,99436.53
2024-03-02T14:34:51.178Z,99444.16
2024-03-02T14:37:20.081Z,99433.28
2024-03-02T14:39:47.570Z,99440.53
2024-03-02T14:42:15.085Z,99435.72
2024-03-02T14:44:42.506Z,99437.31
2024-03-02T14:47:09.988Z,99424.06
2024-03-02T14:49:41.318Z,99435.72
2024-03-02T14:52:10.108Z,99428.47
2024-03-02T14:54:39.192Z,99426.88
2024-03-02T14:57:06.734Z,99420.06
2024-03-02T14:59:35.475Z,99420.44
2024-03-02T15:02:03.428Z,99409.13
2024-03-02T15:04:30.985Z,99413.56
2024-03-02T15:06:58.404Z,99415.50
2024-03-02T15:09:25.873Z,99415.19
2024-03-02T15:11:54.671Z,99408.34
2024-03-02T15:14:22.739Z,99409.91
2024-03-02T15:16:50.337Z,99405.44
2024-03-02T15:19:17.804Z,99413.06
2024-03-02T15:21:45.323Z,99409.53
2024-03-02T15:24:12.732Z,99413.53
2024-03-02T15:26:40.189Z,99407.47
2024-03-02T15:29:08.912Z,99410.75
2024-03-02T15:31:36.313Z,99406.25
2024-03-02T15:34:04.043Z,99403.34
2024-03-02T15:36:31.582Z,99408.66
2024-03-02T15:38:59.348Z,99409.16
2024-03-02T15:41:26.802Z,99401.09
2024-03-02T15:43:54.218Z,99406.34
2024-03-02T15:46:23.108Z,99404.34
2024-03-02T15:48:50.533Z,99404.34
2024-03-02T15:51:18.050Z,99401.66
2024-03-02T15:53:45.479Z,99400.94
2024-03-02T15:56:13.008Z,99393.25
2024-03-02T15:58:40.473Z,99396.50
2024-03-02T16:01:08.155Z,99396.59
2024-03-02T16:03:37.148Z,99391.38
2024-03-02T16:06:04.937Z,99393.38
2024-03-02T16:08:32.439Z,99389.38
2024-03-02T16:11:01.721Z,99387.41
2024-03-02T16:13:31.925Z,99391.34
2024-03-02T16:15:59.677Z,99389.72
2024-03-02T16:18:27.139Z,99387.75
2024-03-02T16:20:56.118Z,99387.63
2024-03-02T16:23:23.663Z,99385.72
2024-03-02T16:25:51.087Z,99392.22
2024-03-02T16:28:18.559Z,99386.91
2024-03-02T16:30:46.245Z,99386.56
2024-03-02T16:33:13.734Z,99395.00
2024-03-02T16:35:41.158Z,99394.50
2024-03-02T16:38:11.443Z,99389.75
2024-03-02T16:40:39.772Z,99395.41
2024-03-02T16:43:07.671Z,99391.41
2024-03-02T16:45:35.236Z,99385.75
2024-03-02T16:48:02.853Z,99397.78
2024-03-02T16:50:30.335Z,99404.22
2024-03-02T16:52:57.795Z,99393.81
2024-03-02T16:55:26.595Z,99397.00
2024-03-02T16:57:54.400Z,99398.16
2024-03-02T17:00:22.374Z,99392.72
2024-03-02T17:02:49.827Z,99396.91
2024-03-02T17:05:23.309Z,99395.81
2024-03-02T17:07:50.735Z,99400.09
2024-03-02T17:10:18.295Z,99408.81
2024-03-02T17:12:47.145Z,99411.31
2024-03-02T17:15:14.691Z,99415.97
2024-03-02T17:17:42.194Z,99418.59
2024-03-02T17:20:10.688Z,99419.91
2024-03-02T17:22:38.741Z,99426.47
2024-03-02T17:25:07.187Z,99418.72
2024-03-02T17:27:35.126Z,99421.50
2024-03-02T17:30:04.659Z,99427.53
2024-03-02T17:32:33.110Z,99416.22
2024-03-02T17:35:01.159Z,99419.44
2024-03-02T17:37:28.891Z,99420.50
2024-03-02T17:39:56.555Z,99408.69
2024-03-02T17:42:24.085Z,99410.34
2024-03-02T17:44:51.563Z,99405.44
2024-03-02T17:47:20.335Z,99408.22
2024-03-02T17:49:47.794Z,99413.03
2024-03-02T17:52:15.653Z,99408.53
2024-03-02T17:54:43.209Z,99414.50
2024-03-02T17:57:10.779Z,99405.09
2024-03-02T17:59:38.761Z,99406.00
2024-03-02T18:02:08.000Z,99400.28
2024-03-02T18:04:37.071Z,99405.78
2024-03-02T18:07:04.705Z,99391.28
2024-03-02T18:09:31.267Z,99401.69
2024-03-02T18:11:58.719Z,99404.19
2024-03-02T18:14:26.401Z,99405.69
2024-03-02T18:16:53.965Z,99404.88
2024-03-02T18:19:21.491Z,99402.53
2024-03-02T18:21:50.530Z,99401.38
2024-03-02T18:24:18.553Z,99394.97
2024-03-02T18:26:45.991Z,99400.25
2024-03-02T18:29:13.916Z,99396.88
2024-03-02T18:31:41.326Z,99391.31
2024-03-02T18:34:08.870Z,99390.31
2024-03-02T18:36:36.467Z,99384.81
2024-03-02T18:39:06.750Z,99388.06
2024-03-02T18:41:34.182Z,99382.50
2024-03-02T18:44:01.615Z,99384.91
2024-03-02T18:46:29.371Z,99378.59
2024-03-02T18:48:56.978Z,99380.09
2024-03-02T18:51:24.516Z,99379.66
2024-03-02T18:53:51.912Z,99376.34
2024-03-02T18:56:20.715Z,99376.00
2024-03-02T18:58:48.264Z,99380.41
2024-03-02T19:01:16.712Z,99377.13
2024-03-02T19:03:44.241Z,99375.88
2024-03-02T19:06:16.081Z,99369.88
2024-03-02T19:08:43.557Z,99379.69
2024-03-02T19:11:14.467Z,99367.41
2024-03-02T19:13:43.325Z,99366.78
2024-03-02T19:16:12.715Z,99357.81
2024-03-02T19:18:40.779Z,99371.59
2024-03-02T19:21:08.479Z,99368.53
2024-03-02T19:23:40.381Z,99367.34
2024-03-02T19:26:17.093Z,99367.47
2024-03-02T19:28:45.937Z,99364.59
2024-03-02T19:31:13.430Z,99365.72
2024-03-02T19:33:40.926Z,99368.53
2024-03-02T19:36:09.003Z,99360.91
2024-03-02T19:38:36.509Z,99366.06
2024-03-02T19:41:04.981Z,99366.13
2024-03-02T19:43:32.632Z,99364.72
2024-03-02T19:46:01.490Z,99361.47
2024-03-02T19:48:29.468Z,99354.94
2024-03-02T19:50:57.841Z,99351.53
2024-03-02T19:53:26.461Z,99341.84
2024-03-02T19:55:53.900Z,99349.13
2024-03-02T19:58:21.532Z,99347.69
2024-03-02T20:00:49.347Z,99341.47
2024-03-02T20:03:18.103Z,99343.75
2024-03-02T20:05:45.674Z,99344.75
2024-03-02T20:08:13.116Z,99340.16
2024-03-02T20:10:40.713Z,99344.66
2024-03-02T20:13:08.662Z,99335.16
2024-03-02T20:15:36.255Z,99342.69
2024-03-02T20:18:03.888Z,99327.59
2024-03-02T20:20:32.747Z,99329.72
2024-03-02T20:23:00.207Z,99327.97
2024-03-02T20:25:27.654Z,99322.13
2024-03-02T20:27:55.968Z,99310.47
2024-03-02T20:30:23.409Z,99321.34
2024-03-02T20:32:50.865Z,99314.28
2024-03-02T20:35:18.386Z,99317.13
2024-03-02T20:37:47.571Z,99311.53
2024-03-02T20:40:19.647Z,99306.25
2024-03-02T20:42:47.976Z,99308.72
2024-03-02T20:45:16.778Z,99300.75
2024-03-02T20:47:46.124Z,99300.53
2024-03-02T20:50:14.016Z,99300.94
2024-03-02T20:52:41.580Z,99300.13
2024-03-02T20:55:12.197Z,99299.75
2024-03-02T20:57:41.123Z,99299.22
2024-03-02T21:00:09.284Z,99292.16
2024-03-02T21:02:36.877Z,99286.31
2024-03-02T21:05:04.621Z,99290.50
2024-03-02T21:07:35.529Z,99288.66
2024-03-02T21:10:03.372Z,99288.66
2024-03-02T21:12:32.262Z,99287.19
2024-03-02T21:14:59.692Z,99291.41
2024-03-02T21:17:28.275Z,99286.44
2024-03-02T21:19:55.903Z,99298.25
2024-03-02T21:22:23.628Z,99296.00
2024-03-02T21:24:51.114Z,99295.22
2024-03-02T21:27:21.027Z,99296.50
2024-03-02T21:29:50.213Z,99285.72
2024-03-02T21:32:17.641Z,99291.84
2024-03-02T21:34:45.065Z,99291.63
2024-03-02T21:37:12.627Z,99306.38
2024-03-02T21:39:46.816Z,99300.28
2024-03-02T21:42:15.016Z,99296.03
2024-03-02T21:44:42.466Z,99301.00
2024-03-02T21:47:11.232Z,99297.91
2024-03-02T21:49:38.666Z,99301.38
2024-03-02T21:52:06.526Z,99295.06
2024-03-02T21:54:34.015Z,99293.03
2024-03-02T21:57:03.410Z,99291.63
2024-03-02T21:59:30.888Z,99288.84
2024-03-02T22:01:58.455Z,99279.44
2024-03-02T22:04:27.222Z,99288.19
2024-03-02T22:06:54.829Z,99293.47
2024-03-02T22:09:22.485Z,99286.16
2024-03-02T22:11:49.945Z,99279.38
2024-03-02T22:14:19.450Z,99282.03
2024-03-02T22:16:46.932Z,99271.38
2024-03-02T22:19:14.891Z,99273.81
2024-03-02T22:21:43.691Z,99276.59
2024-03-02T22:24:14.238Z,99264.72
2024-03-02T22:26:41.710Z,99275.97
2024-03-02T22:29:09.180Z,99273.59
2024-03-02T22:31:36.933Z,99272.53
2024-03-02T22:34:04.617Z,99271.88
2024-03-02T22:36:34.377Z,99270.28
2024-03-02T22:39:03.123Z,99278.84
2024-03-02T22:41:30.862Z,99268.38
2024-03-02T22:43:59.295Z,99275.13
2024-03-02T22:46:26.839Z,99271.78
2024-03-02T22:48:55.189Z,99279.50
2024-03-02T22:51:23.211Z,99276.06
2024-03-02T22:53:50.681Z,99282.50
2024-03-02T22:56:19.844Z,99283.13
2024-03-02T22:58:47.304Z,99282.25
2024-03-02T23:01:15.052Z,99279.38
2024-03-02T23:03:43.058Z,99271.81
2024-03-02T23:06:10.717Z,99263.66
2024-03-02T23:08:38.305Z,99275.09
2024-03-02T23:11:07.630Z,99272.22
2024-03-02T23:13:36.992Z,99265.13
2024-03-02T23:16:05.480Z,99264.47
2024-03-02T23:18:33.024Z,99266.81
2024-03-02T23:21:00.480Z,99262.09
2024-03-02T23:23:27.887Z,99255.19
2024-03-02T23:25:55.449Z,99256.88
2024-03-02T23:28:22.958Z,99259.84
2024-03-02T23:30:51.746Z,99255.69
2024-03-02T23:33:19.602Z,99248.25
2024-03-02T23:35:47.512Z,99248.09
2024-03-02T23:38:15.207Z,99246.13
2024-03-02T23:40:58.537Z,99240.28
2024-03-02T23:43:25.939Z,99243.97
2024-03-02T23:45:54.747Z,99237.19
2024-03-02T23:48:22.221Z,99231.97
2024-03-02T23:50:49.600Z,99230.00
2024-03-02T23:53:17.035Z,99229.78
2024-03-02T23:55:51.860Z,99214.91
2024-03-02T23:58:20.895Z,99218.50
